createdAt,value
2022-11-13T00:00:56.528Z,7.60
2022-11-13T00:03:23.650Z,7.70
2022-11-13T00:06:02.282Z,7.50
2022-11-13T00:08:29.643Z,7.30
2022-11-13T00:11:11.525Z,7.10
2022-11-13T00:13:38.915Z,7.10
2022-11-13T00:16:09.935Z,7.30
2022-11-13T00:18:37.419Z,7.40
2022-11-13T00:21:09.143Z,7.40
2022-11-13T00:23:37.070Z,7.40
2022-11-13T00:26:09.807Z,7.20
2022-11-13T00:28:37.090Z,7.10
2022-11-13T00:31:05.987Z,7.30
2022-11-13T00:34:02.047Z,7.20
2022-11-13T00:36:25.862Z,7.20
2022-11-13T00:38:54.068Z,6.90
2022-11-13T00:41:21.757Z,7.10
2022-11-13T00:43:48.571Z,7.50
2022-11-13T00:46:15.328Z,7.30
2022-11-13T00:48:42.188Z,7.00
2022-11-13T00:51:09.034Z,6.90
2022-11-13T00:53:35.964Z,6.80
2022-11-13T00:56:02.850Z,6.90
2022-11-13T00:58:30.260Z,6.70
2022-11-13T01:01:11.845Z,6.70
2022-11-13T01:03:39.525Z,6.70
2022-11-13T01:06:21.339Z,6.80
2022-11-13T01:08:48.367Z,6.80
2022-11-13T01:11:18.428Z,6.60
2022-11-13T01:13:47.461Z,6.60
2022-11-13T01:16:15.764Z,6.70
2022-11-13T01:18:43.162Z,6.60
2022-11-13T01:21:14.215Z,6.60
2022-11-13T01:23:41.645Z,6.60
2022-11-13T01:26:29.759Z,6.50
2022-11-13T01:28:58.826Z,6.60
2022-11-13T01:31:28.652Z,6.50
2022-11-13T01:33:55.927Z,6.60
2022-11-13T01:36:25.653Z,6.60
2022-11-13T01:38:53.134Z,6.60
2022-11-13T01:41:23.782Z,6.60
2022-11-13T01:43:51.964Z,6.50
2022-11-13T01:46:26.018Z,6.60
2022-11-13T01:49:20.267Z,6.80
2022-11-13T01:52:00.746Z,6.60
2022-11-13T01:54:35.302Z,6.60
2022-11-13T01:57:03.884Z,7.00
2022-11-13T01:59:34.477Z,6.80
2022-11-13T02:02:01.542Z,6.70
2022-11-13T02:04:29.994Z,6.70
2022-11-13T02:07:00.387Z,7.10
2022-11-13T02:09:31.617Z,7.40
2022-11-13T02:11:59.207Z,7.30
2022-11-13T02:14:27.794Z,7.40
2022-11-13T02:17:00.125Z,7.30
2022-11-13T02:19:31.623Z,7.20
2022-11-13T02:22:24.750Z,6.90
2022-11-13T02:24:54.907Z,6.50
2022-11-13T02:27:46.594Z,6.40
2022-11-13T02:30:16.127Z,6.30
2022-11-13T02:32:49.342Z,6.20
2022-11-13T02:35:20.134Z,6.30
2022-11-13T02:37:47.080Z,6.50
2022-11-13T02:40:14.206Z,6.80
2022-11-13T02:42:40.955Z,6.70
2022-11-13T02:45:08.547Z,6.50
2022-11-13T02:47:35.676Z,6.30
2022-11-13T02:50:02.966Z,6.20
2022-11-13T02:52:31.175Z,6.00
2022-11-13T02:54:58.018Z,6.00
2022-11-13T02:57:24.788Z,6.10
2022-11-13T02:59:51.938Z,6.20
2022-11-13T03:02:18.761Z,6.50
2022-11-13T03:05:10.972Z,6.50
2022-11-13T03:07:33.085Z,6.30
2022-11-13T03:09:59.811Z,6.10
2022-11-13T03:12:26.598Z,5.90
2022-11-13T03:14:53.408Z,5.80
2022-11-13T03:17:20.189Z,5.70
2022-11-13T03:19:47.009Z,5.60
2022-11-13T03:22:13.840Z,5.70
2022-11-13T03:24:40.620Z,5.80
2022-11-13T03:27:07.360Z,5.90
2022-11-13T03:29:34.123Z,5.80
2022-11-13T03:32:00.971Z,5.80
2022-11-13T03:34:27.850Z,5.80
2022-11-13T03:36:54.589Z,5.70
2022-11-13T03:39:21.331Z,5.70
2022-11-13T03:41:48.057Z,5.80
2022-11-13T03:44:14.767Z,5.80
2022-11-13T03:46:41.508Z,5.80
2022-11-13T03:49:08.279Z,5.90
2022-11-13T03:51:35.022Z,6.00
2022-11-13T03:54:01.817Z,6.40
2022-11-13T03:56:28.581Z,6.60
2022-11-13T03:58:55.330Z,6.80
2022-11-13T04:01:22.169Z,6.80
2022-11-13T04:03:48.961Z,6.60
2022-11-13T04:06:15.770Z,6.50
2022-11-13T04:08:42.531Z,6.30
2022-11-13T04:11:11.335Z,6.20
2022-11-13T04:13:38.464Z,6.10
2022-11-13T04:16:05.662Z,6.10
2022-11-13T04:18:33.061Z,6.10
2022-11-13T04:21:01.586Z,6.20
2022-11-13T04:23:28.386Z,6.40
2022-11-13T04:25:55.372Z,6.50
2022-11-13T04:28:22.132Z,6.50
2022-11-13T04:30:49.497Z,6.70
2022-11-13T04:33:16.259Z,6.70
2022-11-13T04:35:45.675Z,7.20
2022-11-13T04:38:13.210Z,7.80
2022-11-13T04:40:41.027Z,8.10
2022-11-13T04:43:07.884Z,7.60
2022-11-13T04:45:35.262Z,7.00
2022-11-13T04:48:02.063Z,6.70
2022-11-13T04:50:28.812Z,6.70
2022-11-13T04:52:55.641Z,6.50
2022-11-13T04:55:22.424Z,6.40
2022-11-13T04:57:51.558Z,6.60
2022-11-13T05:00:18.661Z,6.50
2022-11-13T05:02:45.694Z,6.40
2022-11-13T05:05:12.910Z,6.30
2022-11-13T05:07:39.739Z,6.10
2022-11-13T05:10:06.679Z,6.00
2022-11-13T05:12:33.399Z,5.90
2022-11-13T05:15:00.134Z,5.80
2022-11-13T05:17:26.940Z,5.70
2022-11-13T05:19:53.765Z,5.80
2022-11-13T05:22:20.493Z,6.30
2022-11-13T05:24:47.224Z,6.40
2022-11-13T05:27:17.350Z,6.30
2022-11-13T05:29:44.444Z,6.50
2022-11-13T05:32:11.346Z,6.10
2022-11-13T05:34:38.165Z,5.90
2022-11-13T05:37:05.027Z,5.70
2022-11-13T05:39:31.778Z,5.70
2022-11-13T05:41:59.164Z,5.90
2022-11-13T05:44:25.919Z,6.30
2022-11-13T05:46:52.663Z,6.60
2022-11-13T05:49:19.524Z,6.30
2022-11-13T05:51:46.275Z,6.30
2022-11-13T05:54:13.154Z,6.20
2022-11-13T05:56:40.562Z,6.70
2022-11-13T05:59:07.770Z,7.10
2022-11-13T06:01:37.692Z,6.60
2022-11-13T06:04:05.684Z,5.90
2022-11-13T06:06:32.843Z,5.70
2022-11-13T06:09:01.735Z,5.50
2022-11-13T06:11:29.877Z,5.40
2022-11-13T06:13:57.823Z,5.20
2022-11-13T06:16:30.534Z,5.20
2022-11-13T06:18:59.174Z,5.10
2022-11-13T06:21:29.057Z,5.00
2022-11-13T06:23:57.729Z,5.00
2022-11-13T06:26:27.441Z,4.90
2022-11-13T06:28:54.476Z,4.80
2022-11-13T06:31:29.152Z,4.90
2022-11-13T06:33:56.800Z,5.10
2022-11-13T06:36:25.817Z,5.00
2022-11-13T06:38:53.047Z,4.90
2022-11-13T06:41:26.008Z,4.80
2022-11-13T06:43:52.762Z,4.90
2022-11-13T06:46:25.805Z,5.10
2022-11-13T06:48:52.794Z,5.30
2022-11-13T06:51:25.018Z,5.00
2022-11-13T06:53:52.727Z,5.00
2022-11-13T06:56:20.136Z,5.10
2022-11-13T06:58:47.282Z,5.20
2022-11-13T07:01:22.501Z,5.10
2022-11-13T07:03:49.576Z,4.90
2022-11-13T07:06:19.632Z,5.00
2022-11-13T07:08:46.893Z,4.80
2022-11-13T07:11:19.124Z,4.80
2022-11-13T07:13:46.313Z,4.60
2022-11-13T07:16:17.982Z,4.60
2022-11-13T07:18:53.476Z,4.60
2022-11-13T07:21:21.451Z,4.60
2022-11-13T07:23:49.393Z,4.80
2022-11-13T07:26:16.985Z,4.80
2022-11-13T07:28:43.945Z,4.90
2022-11-13T07:31:13.343Z,4.70
2022-11-13T07:33:40.190Z,4.70
2022-11-13T07:36:08.326Z,4.60
2022-11-13T07:38:35.656Z,4.90
2022-11-13T07:41:02.862Z,4.80
2022-11-13T07:43:29.820Z,4.80
2022-11-13T07:45:58.914Z,4.90
2022-11-13T07:48:27.832Z,5.10
2022-11-13T07:50:55.525Z,5.20
2022-11-13T07:53:23.162Z,5.10
2022-11-13T07:55:50.149Z,5.40
2022-11-13T07:58:17.056Z,5.20
2022-11-13T08:00:44.208Z,5.10
2022-11-13T08:03:16.014Z,5.10
2022-11-13T08:05:43.257Z,5.30
2022-11-13T08:08:14.153Z,5.20
2022-11-13T08:10:41.327Z,5.10
2022-11-13T08:13:10.398Z,5.00
2022-11-13T08:15:37.579Z,5.00
2022-11-13T08:18:05.242Z,5.00
2022-11-13T08:20:32.943Z,4.90
2022-11-13T08:23:02.142Z,4.90
2022-11-13T08:25:30.227Z,4.90
2022-11-13T08:27:57.684Z,4.90
2022-11-13T08:30:26.640Z,4.90
2022-11-13T08:32:53.657Z,4.90
2022-11-13T08:35:25.259Z,4.90
2022-11-13T08:37:55.993Z,4.90
2022-11-13T08:40:22.791Z,4.90
2022-11-13T08:42:50.070Z,5.00
2022-11-13T08:45:16.857Z,5.10
2022-11-13T08:47:43.799Z,5.10
2022-11-13T08:50:10.587Z,5.10
2022-11-13T08:52:37.368Z,5.40
2022-11-13T08:55:04.427Z,5.90
2022-11-13T08:57:31.293Z,5.90
2022-11-13T08:59:58.144Z,5.90
2022-11-13T09:02:25.283Z,5.70
2022-11-13T09:04:52.220Z,5.70
2022-11-13T09:07:21.054Z,5.80
2022-11-13T09:09:51.479Z,6.30
2022-11-13T09:12:18.691Z,6.10
2022-11-13T09:14:45.475Z,6.10
2022-11-13T09:17:12.266Z,6.20
2022-11-13T09:19:39.063Z,6.20
2022-11-13T09:22:05.852Z,6.30
2022-11-13T09:24:32.726Z,6.30
2022-11-13T09:26:59.572Z,6.60
2022-11-13T09:29:28.534Z,6.70
2022-11-13T09:31:55.937Z,6.90
2022-11-13T09:34:23.050Z,7.00
2022-11-13T09:36:49.770Z,7.00
2022-11-13T09:39:17.133Z,7.20
2022-11-13T09:41:53.917Z,7.10
2022-11-13T09:44:35.176Z,7.30
2022-11-13T09:47:25.160Z,7.40
2022-11-13T09:50:31.026Z,7.60
2022-11-13T09:52:57.867Z,7.70
2022-11-13T09:55:31.929Z,7.90
2022-11-13T09:58:28.139Z,8.10
2022-11-13T10:00:55.610Z,8.20
2022-11-13T10:04:05.799Z,8.30
2022-11-13T10:06:58.706Z,8.60
2022-11-13T10:09:57.958Z,8.80
2022-11-13T10:12:27.311Z,9.30
2022-11-13T10:14:57.202Z,9.40
2022-11-13T10:17:36.861Z,9.50
2022-11-13T10:20:11.924Z,9.60
2022-11-13T10:22:50.705Z,9.80
2022-11-13T10:25:26.736Z,9.90
2022-11-13T10:27:56.208Z,10.20
2022-11-13T10:30:23.630Z,10.40
2022-11-13T10:32:50.829Z,10.60
2022-11-13T10:35:38.910Z,10.70
2022-11-13T10:38:28.978Z,10.90
2022-11-13T10:41:11.080Z,11.00
2022-11-13T10:43:58.504Z,11.00
2022-11-13T10:46:29.922Z,11.20
2022-11-13T10:49:21.639Z,11.30
2022-11-13T10:51:59.318Z,11.40
2022-11-13T10:54:31.996Z,11.60
2022-11-13T10:57:04.556Z,11.60
2022-11-13T10:59:40.450Z,11.70
2022-11-13T11:02:18.034Z,11.80
2022-11-13T11:04:45.275Z,11.90
2022-11-13T11:07:22.169Z,12.00
2022-11-13T11:09:51.485Z,12.10
2022-11-13T11:12:30.402Z,12.00
2022-11-13T11:14:58.631Z,12.00
2022-11-13T11:17:41.013Z,12.00
2022-11-13T11:20:42.454Z,12.10
2022-11-13T11:23:36.857Z,12.20
2022-11-13T11:26:14.011Z,12.30
2022-11-13T11:28:53.854Z,12.50
2022-11-13T11:31:28.711Z,12.50
2022-11-13T11:34:02.717Z,12.40
2022-11-13T11:36:57.518Z,12.40
2022-11-13T11:40:05.589Z,12.40
2022-11-13T11:42:39.724Z,12.70
2022-11-13T11:45:25.490Z,13.00
2022-11-13T11:47:53.700Z,12.90
2022-11-13T11:50:50.078Z,13.20
2022-11-13T11:53:36.370Z,13.10
2022-11-13T11:56:26.319Z,13.30
2022-11-13T11:58:58.696Z,13.30
2022-11-13T12:01:31.329Z,13.40
2022-11-13T12:04:32.688Z,13.30
2022-11-13T12:07:17.915Z,13.30
2022-11-13T12:10:21.133Z,13.30
2022-11-13T12:12:50.425Z,13.40
2022-11-13T12:15:37.157Z,13.40
2022-11-13T12:18:06.950Z,13.50
2022-11-13T12:20:48.044Z,13.50
2022-11-13T12:23:44.091Z,13.40
2022-11-13T12:26:10.831Z,13.40
2022-11-13T12:28:40.979Z,13.40
2022-11-13T12:31:13.991Z,13.40
2022-11-13T12:33:58.226Z,13.50
2022-11-13T12:36:28.764Z,13.60
2022-11-13T12:39:10.838Z,13.60
2022-11-13T12:42:05.996Z,13.60
2022-11-13T12:44:57.856Z,13.60
2022-11-13T12:47:24.984Z,13.60
2022-11-13T12:50:30.230Z,13.70
2022-11-13T12:53:03.870Z,13.70
2022-11-13T12:55:34.860Z,13.80
2022-11-13T12:58:23.726Z,13.70
2022-11-13T13:01:11.135Z,13.70
2022-11-13T13:04:22.704Z,13.80
2022-11-13T13:06:57.800Z,13.80
2022-11-13T13:09:27.516Z,13.90
2022-11-13T13:12:07.462Z,13.90
2022-11-13T13:15:11.668Z,13.80
2022-11-13T13:17:38.478Z,13.80
2022-11-13T13:20:30.647Z,13.80
2022-11-13T13:22:59.979Z,13.80
2022-11-13T13:25:32.238Z,13.90
2022-11-13T13:28:16.399Z,14.00
2022-11-13T13:30:57.564Z,14.00
2022-11-13T13:33:48.536Z,14.00
2022-11-13T13:36:34.019Z,14.10
2022-11-13T13:39:27.562Z,14.20
2022-11-13T13:42:27.072Z,14.30
2022-11-13T13:45:26.364Z,14.20
2022-11-13T13:47:56.243Z,14.20
2022-11-13T13:50:31.199Z,14.20
2022-11-13T13:52:59.662Z,14.20
2022-11-13T13:55:36.596Z,14.10
2022-11-13T13:58:08.380Z,14.10
2022-11-13T14:00:41.089Z,14.00
2022-11-13T14:03:22.540Z,14.00
2022-11-13T14:05:49.303Z,14.10
2022-11-13T14:08:21.664Z,14.10
2022-11-13T14:10:48.705Z,14.20
2022-11-13T14:13:24.321Z,14.10
2022-11-13T14:16:04.821Z,14.10
2022-11-13T14:18:32.660Z,14.10
2022-11-13T14:21:05.898Z,14.10
2022-11-13T14:23:45.906Z,14.30
2022-11-13T14:26:13.362Z,14.00
2022-11-13T14:28:56.568Z,14.00
2022-11-13T14:31:32.599Z,14.00
2022-11-13T14:34:10.286Z,14.10
2022-11-13T14:36:38.351Z,13.80
2022-11-13T14:39:05.280Z,13.60
2022-11-13T14:41:45.749Z,13.40
2022-11-13T14:44:12.961Z,13.30
2022-11-13T14:46:44.513Z,13.20
2022-11-13T14:49:33.309Z,13.10
2022-11-13T14:52:01.378Z,13.10
2022-11-13T14:54:33.779Z,12.90
2022-11-13T14:57:14.001Z,13.00
2022-11-13T14:59:43.794Z,13.00
2022-11-13T15:02:12.421Z,13.10
2022-11-13T15:04:40.650Z,13.00
2022-11-13T15:07:31.619Z,12.70
2022-11-13T15:09:59.458Z,12.60
2022-11-13T15:12:26.601Z,12.50
2022-11-13T15:14:53.967Z,12.30
2022-11-13T15:17:22.749Z,12.30
2022-11-13T15:19:53.377Z,12.20
2022-11-13T15:22:27.021Z,12.20
2022-11-13T15:24:54.244Z,12.00
2022-11-13T15:27:21.024Z,12.00
2022-11-13T15:29:47.819Z,11.80
2022-11-13T15:32:16.060Z,11.70
2022-11-13T15:34:43.271Z,11.70
2022-11-13T15:37:15.873Z,11.60
2022-11-13T15:39:42.673Z,11.40
2022-11-13T15:42:16.237Z,11.30
2022-11-13T15:44:42.970Z,11.20
2022-11-13T15:47:30.546Z,11.20
2022-11-13T15:50:14.787Z,11.10
2022-11-13T15:52:45.929Z,11.00
2022-11-13T15:55:26.499Z,10.60
2022-11-13T15:57:54.166Z,10.60
2022-11-13T16:00:26.560Z,10.60
2022-11-13T16:02:55.955Z,10.60
2022-11-13T16:05:25.677Z,10.40
2022-11-13T16:07:53.884Z,10.40
2022-11-13T16:10:22.187Z,10.30
2022-11-13T16:12:49.020Z,10.20
2022-11-13T16:15:16.974Z,10.20
2022-11-13T16:17:49.561Z,10.30
2022-11-13T16:20:18.207Z,10.00
2022-11-13T16:22:45.340Z,9.90
2022-11-13T16:25:18.994Z,10.00
2022-11-13T16:27:45.920Z,9.80
2022-11-13T16:30:17.300Z,9.70
2022-11-13T16:32:44.148Z,9.50
2022-11-13T16:35:15.834Z,9.40
2022-11-13T16:37:43.158Z,9.30
2022-11-13T16:40:22.908Z,9.20
2022-11-13T16:42:49.931Z,9.20
2022-11-13T16:45:16.780Z,9.30
2022-11-13T16:47:45.091Z,9.20
2022-11-13T16:50:21.007Z,9.20
2022-11-13T16:52:48.186Z,9.10
2022-11-13T16:55:15.030Z,9.00
2022-11-13T16:57:42.065Z,8.90
2022-11-13T17:00:12.895Z,8.90
2022-11-13T17:02:40.036Z,8.90
2022-11-13T17:05:07.236Z,8.70
2022-11-13T17:07:34.086Z,8.60
2022-11-13T17:10:31.798Z,8.60
2022-11-13T17:12:52.292Z,8.50
2022-11-13T17:15:19.782Z,8.40
2022-11-13T17:17:47.135Z,8.20
2022-11-13T17:20:15.745Z,8.40
2022-11-13T17:22:48.325Z,8.30
2022-11-13T17:25:17.200Z,8.30
2022-11-13T17:27:44.400Z,8.50
2022-11-13T17:30:12.723Z,8.50
2022-11-13T17:32:39.702Z,8.30
2022-11-13T17:35:06.949Z,8.20
2022-11-13T17:37:34.187Z,7.90
2022-11-13T17:40:01.081Z,8.00
2022-11-13T17:42:28.734Z,8.00
2022-11-13T17:44:56.040Z,7.90
2022-11-13T17:47:23.008Z,7.80
2022-11-13T17:49:49.814Z,7.90
2022-11-13T17:52:16.728Z,8.10
2022-11-13T17:54:43.488Z,8.00
2022-11-13T17:57:11.560Z,7.80
2022-11-13T17:59:38.516Z,7.80
2022-11-13T18:02:05.422Z,7.90
2022-11-13T18:04:32.216Z,7.90
2022-11-13T18:06:59.105Z,7.60
2022-11-13T18:09:25.954Z,7.50
2022-11-13T18:11:52.769Z,7.40
2022-11-13T18:14:19.616Z,7.30
2022-11-13T18:16:46.580Z,7.30
2022-11-13T18:19:13.481Z,7.40
2022-11-13T18:21:40.882Z,7.50
2022-11-13T18:24:13.249Z,7.40
2022-11-13T18:26:40.521Z,7.30
2022-11-13T18:29:07.802Z,7.20
2022-11-13T18:31:34.868Z,7.20
2022-11-13T18:34:03.065Z,7.10
2022-11-13T18:36:32.155Z,7.00
2022-11-13T18:39:01.870Z,7.00
2022-11-13T18:41:29.534Z,7.00
2022-11-13T18:43:57.109Z,7.00
2022-11-13T18:46:24.080Z,6.90
2022-11-13T18:48:51.006Z,6.90
2022-11-13T18:51:23.307Z,7.10
2022-11-13T18:53:51.528Z,7.30
2022-11-13T18:56:30.701Z,7.20
2022-11-13T18:58:59.457Z,7.00
2022-11-13T19:01:29.063Z,6.90
2022-11-13T19:04:21.848Z,6.80
2022-11-13T19:06:46.479Z,6.90
2022-11-13T19:09:15.850Z,6.90
2022-11-13T19:11:43.509Z,6.80
2022-11-13T19:14:13.477Z,6.70
2022-11-13T19:16:40.647Z,6.60
2022-11-13T19:19:15.088Z,6.80
2022-11-13T19:21:42.059Z,6.50
2022-11-13T19:24:09.678Z,6.50
2022-11-13T19:26:36.426Z,6.30
2022-11-13T19:29:03.377Z,6.30
2022-11-13T19:31:31.225Z,6.30
2022-11-13T19:34:03.970Z,6.30
2022-11-13T19:36:31.989Z,6.30
2022-11-13T19:38:59.602Z,6.30
2022-11-13T19:41:28.202Z,6.20
2022-11-13T19:43:57.057Z,6.30
2022-11-13T19:46:24.063Z,6.30
2022-11-13T19:48:52.287Z,6.20
2022-11-13T19:51:23.904Z,6.10
2022-11-13T19:53:59.029Z,6.20
2022-11-13T19:56:28.750Z,6.50
2022-11-13T19:58:56.730Z,7.10
2022-11-13T20:01:26.025Z,7.30
2022-11-13T20:04:02.267Z,6.70
2022-11-13T20:06:32.044Z,6.40
2022-11-13T20:09:00.055Z,6.10
2022-11-13T20:11:27.417Z,6.10
2022-11-13T20:13:56.160Z,6.00
2022-11-13T20:16:24.171Z,5.90
2022-11-13T20:18:51.606Z,5.90
2022-11-13T20:21:30.541Z,5.80
2022-11-13T20:23:58.906Z,5.80
2022-11-13T20:26:25.933Z,5.80
2022-11-13T20:28:53.019Z,5.80
2022-11-13T20:31:22.769Z,5.90
2022-11-13T20:33:52.372Z,6.20
2022-11-13T20:36:20.158Z,6.30
2022-11-13T20:38:55.104Z,6.00
2022-11-13T20:41:24.113Z,5.90
2022-11-13T20:43:52.390Z,5.90
2022-11-13T20:46:21.703Z,5.90
2022-11-13T20:48:49.318Z,6.20
2022-11-13T20:51:22.145Z,6.10
2022-11-13T20:53:49.875Z,6.40
2022-11-13T20:56:18.065Z,6.10
2022-11-13T20:58:45.242Z,6.00
2022-11-13T21:01:17.477Z,5.70
2022-11-13T21:03:45.863Z,5.80
2022-11-13T21:06:16.044Z,6.10
2022-11-13T21:08:43.777Z,6.30
2022-11-13T21:11:27.286Z,6.30
2022-11-13T21:13:55.570Z,6.30
2022-11-13T21:16:23.471Z,6.00
2022-11-13T21:18:51.619Z,5.80
2022-11-13T21:21:21.705Z,5.80
2022-11-13T21:23:48.989Z,5.70
2022-11-13T21:26:16.298Z,5.50
2022-11-13T21:28:43.033Z,5.50
2022-11-13T21:31:18.091Z,5.30
2022-11-13T21:33:46.182Z,5.20
2022-11-13T21:36:15.414Z,5.20
2022-11-13T21:38:45.251Z,5.10
2022-11-13T21:41:23.162Z,5.00
2022-11-13T21:44:03.229Z,5.00
2022-11-13T21:46:38.610Z,5.00
2022-11-13T21:49:11.226Z,5.20
2022-11-13T21:51:39.794Z,5.20
2022-11-13T21:54:07.693Z,5.20
2022-11-13T21:56:36.341Z,5.30
2022-11-13T21:59:04.425Z,5.20
2022-11-13T22:01:37.542Z,5.10
2022-11-13T22:04:05.348Z,5.10
2022-11-13T22:06:36.111Z,5.20
2022-11-13T22:09:14.848Z,5.30
2022-11-13T22:11:42.098Z,5.30
2022-11-13T22:14:09.263Z,5.30
2022-11-13T22:16:38.933Z,5.30
2022-11-13T22:19:09.730Z,5.50
2022-11-13T22:21:36.527Z,5.30
2022-11-13T22:24:03.662Z,5.20
2022-11-13T22:26:31.760Z,5.00
2022-11-13T22:29:00.168Z,4.90
2022-11-13T22:31:29.151Z,4.90
2022-11-13T22:33:56.287Z,4.90
2022-11-13T22:36:25.900Z,4.80
2022-11-13T22:38:53.695Z,4.70
2022-11-13T22:41:25.705Z,4.60
2022-11-13T22:43:55.037Z,4.60
2022-11-13T22:46:24.302Z,4.70
2022-11-13T22:48:52.687Z,4.80
2022-11-13T22:51:25.461Z,4.80
2022-11-13T22:54:00.396Z,4.80
2022-11-13T22:56:29.498Z,4.90
2022-11-13T22:58:57.870Z,5.00
2022-11-13T23:01:27.524Z,5.10
2022-11-13T23:03:55.752Z,5.40
2022-11-13T23:06:27.729Z,5.70
2022-11-13T23:08:54.958Z,5.50
2022-11-13T23:11:27.837Z,5.30
2022-11-13T23:13:57.762Z,5.10
2022-11-13T23:16:26.244Z,5.20
2022-11-13T23:18:55.020Z,5.10
2022-11-13T23:21:22.722Z,4.80
2022-11-13T23:23:49.563Z,4.60
2022-11-13T23:26:17.289Z,4.70
2022-11-13T23:28:44.260Z,4.60
2022-11-13T23:31:11.551Z,4.60
2022-11-13T23:33:40.199Z,4.80
2022-11-13T23:36:08.700Z,4.90
2022-11-13T23:38:35.455Z,4.80
2022-11-13T23:41:02.330Z,5.00
2022-11-13T23:43:54.284Z,4.80
2022-11-13T23:46:17.180Z,4.70
2022-11-13T23:48:44.044Z,4.80
2022-11-13T23:51:10.991Z,4.70
2022-11-13T23:53:37.747Z,5.00
2022-11-13T23:56:04.764Z,5.50
2022-11-13T23:58:32.628Z,5.40
